sensor_id;sensor_type;location;lat;lon;timestamp;P1;durP1;ratioP1;P2;durP2;ratioP2
73872;SDS011;62206;47.568;9.364;2024-01-30T00:00:25;16.73;;;11.73;;
73872;SDS011;62206;47.568;9.364;2024-01-30T00:02:52;18.38;;;12.48;;
73872;SDS011;62206;47.568;9.364;2024-01-30T00:05:19;17.27;;;12.05;;
73872;SDS011;62206;47.568;9.364;2024-01-30T00:07:46;18.42;;;12.27;;
73872;SDS011;62206;47.568;9.364;2024-01-30T00:10:15;18.27;;;13.30;;
73872;SDS011;62206;47.568;9.364;2024-01-30T00:12:41;19.77;;;11.93;;
73872;SDS011;62206;47.568;9.364;2024-01-30T00:15:08;19.48;;;12.63;;
73872;SDS011;62206;47.568;9.364;2024-01-30T00:17:36;18.35;;;13.40;;
73872;SDS011;62206;47.568;9.364;2024-01-30T00:20:03;19.25;;;13.10;;
73872;SDS011;62206;47.568;9.364;2024-01-30T00:22:31;17.30;;;12.80;;
73872;SDS011;62206;47.568;9.364;2024-01-30T00:24:58;16.27;;;11.50;;
73872;SDS011;62206;47.568;9.364;2024-01-30T00:27:26;20.60;;;12.68;;
73872;SDS011;62206;47.568;9.364;2024-01-30T00:29:53;17.45;;;11.10;;
73872;SDS011;62206;47.568;9.364;2024-01-30T00:32:21;19.08;;;13.00;;
73872;SDS011;62206;47.568;9.364;2024-01-30T00:34:48;19.03;;;11.83;;
73872;SDS011;62206;47.568;9.364;2024-01-30T00:37:15;19.85;;;13.40;;
73872;SDS011;62206;47.568;9.364;2024-01-30T00:39:42;19.02;;;13.20;;
73872;SDS011;62206;47.568;9.364;2024-01-30T00:42:09;18.88;;;13.45;;
73872;SDS011;62206;47.568;9.364;2024-01-30T00:44:37;19.13;;;12.73;;
73872;SDS011;62206;47.568;9.364;2024-01-30T00:47:05;18.07;;;12.40;;
73872;SDS011;62206;47.568;9.364;2024-01-30T00:49:31;18.50;;;12.73;;
73872;SDS011;62206;47.568;9.364;2024-01-30T00:51:58;18.00;;;12.43;;
73872;SDS011;62206;47.568;9.364;2024-01-30T00:54:25;16.20;;;12.15;;
73872;SDS011;62206;47.568;9.364;2024-01-30T00:56:52;17.02;;;11.52;;
73872;SDS011;62206;47.568;9.364;2024-01-30T00:59:19;18.50;;;12.17;;
73872;SDS011;62206;47.568;9.364;2024-01-30T01:01:47;16.40;;;11.98;;
73872;SDS011;62206;47.568;9.364;2024-01-30T01:04:14;17.85;;;12.25;;
73872;SDS011;62206;47.568;9.364;2024-01-30T01:06:41;17.45;;;11.75;;
73872;SDS011;62206;47.568;9.364;2024-01-30T01:09:10;24.67;;;12.45;;
73872;SDS011;62206;47.568;9.364;2024-01-30T01:11:37;17.67;;;11.60;;
73872;SDS011;62206;47.568;9.364;2024-01-30T01:14:04;15.90;;;11.40;;
73872;SDS011;62206;47.568;9.364;2024-01-30T01:16:31;19.00;;;12.70;;
73872;SDS011;62206;47.568;9.364;2024-01-30T01:18:59;16.75;;;11.68;;
73872;SDS011;62206;47.568;9.364;2024-01-30T01:21:26;19.00;;;12.70;;
73872;SDS011;62206;47.568;9.364;2024-01-30T01:23:53;15.43;;;10.03;;
73872;SDS011;62206;47.568;9.364;2024-01-30T01:26:20;17.65;;;12.23;;
73872;SDS011;62206;47.568;9.364;2024-01-30T01:28:47;17.48;;;12.73;;
73872;SDS011;62206;47.568;9.364;2024-01-30T01:31:14;15.45;;;11.73;;
73872;SDS011;62206;47.568;9.364;2024-01-30T01:33:42;22.38;;;11.82;;
73872;SDS011;62206;47.568;9.364;2024-01-30T01:36:10;16.97;;;11.93;;
73872;SDS011;62206;47.568;9.364;2024-01-30T01:38:38;18.27;;;11.48;;
73872;SDS011;62206;47.568;9.364;2024-01-30T01:41:04;15.88;;;11.50;;
73872;SDS011;62206;47.568;9.364;2024-01-30T01:43:31;16.25;;;11.27;;
73872;SDS011;62206;47.568;9.364;2024-01-30T01:45:58;16.80;;;12.07;;
73872;SDS011;62206;47.568;9.364;2024-01-30T01:48:26;15.97;;;11.23;;
73872;SDS011;62206;47.568;9.364;2024-01-30T01:50:53;16.73;;;11.65;;
73872;SDS011;62206;47.568;9.364;2024-01-30T01:53:22;16.50;;;11.63;;
73872;SDS011;62206;47.568;9.364;2024-01-30T01:55:48;17.30;;;10.77;;
73872;SDS011;62206;47.568;9.364;2024-01-30T01:58:15;16.05;;;12.05;;
73872;SDS011;62206;47.568;9.364;2024-01-30T02:00:46;18.40;;;12.70;;
73872;SDS011;62206;47.568;9.364;2024-01-30T02:03:12;15.40;;;10.95;;
73872;SDS011;62206;47.568;9.364;2024-01-30T02:08:16;17.35;;;12.15;;
73872;SDS011;62206;47.568;9.364;2024-01-30T02:10:45;16.90;;;12.05;;
73872;SDS011;62206;47.568;9.364;2024-01-30T02:13:12;29.17;;;12.70;;
73872;SDS011;62206;47.568;9.364;2024-01-30T02:15:39;31.73;;;12.52;;
73872;SDS011;62206;47.568;9.364;2024-01-30T02:18:07;26.40;;;13.13;;
73872;SDS011;62206;47.568;9.364;2024-01-30T02:20:34;55.13;;;12.43;;
73872;SDS011;62206;47.568;9.364;2024-01-30T02:23:03;31.13;;;12.23;;
73872;SDS011;62206;47.568;9.364;2024-01-30T02:25:32;40.33;;;11.97;;
73872;SDS011;62206;47.568;9.364;2024-01-30T02:27:59;20.60;;;12.18;;
73872;SDS011;62206;47.568;9.364;2024-01-30T02:30:26;22.55;;;12.63;;
73872;SDS011;62206;47.568;9.364;2024-01-30T02:32:54;29.27;;;11.63;;
73872;SDS011;62206;47.568;9.364;2024-01-30T02:35:21;38.13;;;12.73;;
73872;SDS011;62206;47.568;9.364;2024-01-30T02:37:48;20.83;;;11.83;;
73872;SDS011;62206;47.568;9.364;2024-01-30T02:40:17;21.52;;;11.63;;
73872;SDS011;62206;47.568;9.364;2024-01-30T02:42:44;28.15;;;11.90;;
73872;SDS011;62206;47.568;9.364;2024-01-30T02:45:11;20.77;;;12.27;;
73872;SDS011;62206;47.568;9.364;2024-01-30T02:47:40;18.17;;;11.30;;
73872;SDS011;62206;47.568;9.364;2024-01-30T02:50:07;20.80;;;11.93;;
73872;SDS011;62206;47.568;9.364;2024-01-30T02:52:34;18.58;;;12.20;;
73872;SDS011;62206;47.568;9.364;2024-01-30T02:55:02;15.25;;;11.15;;
73872;SDS011;62206;47.568;9.364;2024-01-30T02:57:31;16.65;;;11.63;;
73872;SDS011;62206;47.568;9.364;2024-01-30T02:59:59;18.35;;;12.48;;
73872;SDS011;62206;47.568;9.364;2024-01-30T03:02:27;14.70;;;10.57;;
73872;SDS011;62206;47.568;9.364;2024-01-30T03:04:54;21.63;;;12.13;;
73872;SDS011;62206;47.568;9.364;2024-01-30T03:07:21;16.48;;;12.02;;
73872;SDS011;62206;47.568;9.364;2024-01-30T03:09:49;16.80;;;11.80;;
73872;SDS011;62206;47.568;9.364;2024-01-30T03:12:16;36.65;;;11.85;;
73872;SDS011;62206;47.568;9.364;2024-01-30T03:14:44;14.43;;;9.90;;
73872;SDS011;62206;47.568;9.364;2024-01-30T03:17:12;17.20;;;11.02;;
73872;SDS011;62206;47.568;9.364;2024-01-30T03:19:42;15.85;;;12.13;;
73872;SDS011;62206;47.568;9.364;2024-01-30T03:22:09;14.93;;;11.23;;
73872;SDS011;62206;47.568;9.364;2024-01-30T03:24:36;17.00;;;10.82;;
73872;SDS011;62206;47.568;9.364;2024-01-30T03:27:04;13.97;;;10.23;;
73872;SDS011;62206;47.568;9.364;2024-01-30T03:29:31;15.10;;;10.32;;
73872;SDS011;62206;47.568;9.364;2024-01-30T03:32:00;14.73;;;10.73;;
73872;SDS011;62206;47.568;9.364;2024-01-30T03:34:27;14.35;;;10.52;;
73872;SDS011;62206;47.568;9.364;2024-01-30T03:36:54;14.80;;;10.73;;
73872;SDS011;62206;47.568;9.364;2024-01-30T03:39:22;19.10;;;10.40;;
73872;SDS011;62206;47.568;9.364;2024-01-30T03:41:49;14.20;;;9.70;;
73872;SDS011;62206;47.568;9.364;2024-01-30T03:44:16;13.23;;;10.73;;
73872;SDS011;62206;47.568;9.364;2024-01-30T03:46:44;15.35;;;10.05;;
73872;SDS011;62206;47.568;9.364;2024-01-30T03:49:12;16.08;;;10.88;;
73872;SDS011;62206;47.568;9.364;2024-01-30T03:51:39;28.77;;;10.40;;
73872;SDS011;62206;47.568;9.364;2024-01-30T03:54:07;16.67;;;10.73;;
73872;SDS011;62206;47.568;9.364;2024-01-30T03:56:35;14.32;;;11.05;;
73872;SDS011;62206;47.568;9.364;2024-01-30T03:59:02;13.13;;;9.63;;
73872;SDS011;62206;47.568;9.364;2024-01-30T04:01:29;12.63;;;10.43;;
73872;SDS011;62206;47.568;9.364;2024-01-30T04:03:58;11.80;;;9.57;;
73872;SDS011;62206;47.568;9.364;2024-01-30T04:06:27;13.07;;;10.25;;
73872;SDS011;62206;47.568;9.364;2024-01-30T04:08:54;14.35;;;10.80;;
73872;SDS011;62206;47.568;9.364;2024-01-30T04:11:21;15.63;;;9.85;;
73872;SDS011;62206;47.568;9.364;2024-01-30T04:13:48;17.58;;;10.40;;
73872;SDS011;62206;47.568;9.364;2024-01-30T04:16:19;11.73;;;9.53;;
73872;SDS011;62206;47.568;9.364;2024-01-30T04:18:47;13.70;;;9.52;;
73872;SDS011;62206;47.568;9.364;2024-01-30T04:21:14;18.73;;;10.43;;
73872;SDS011;62206;47.568;9.364;2024-01-30T04:23:43;14.25;;;11.20;;
73872;SDS011;62206;47.568;9.364;2024-01-30T04:26:10;13.77;;;10.18;;
73872;SDS011;62206;47.568;9.364;2024-01-30T04:28:37;13.77;;;10.77;;
73872;SDS011;62206;47.568;9.364;2024-01-30T04:31:07;13.90;;;10.43;;
73872;SDS011;62206;47.568;9.364;2024-01-30T04:33:34;14.57;;;11.48;;
73872;SDS011;62206;47.568;9.364;2024-01-30T04:36:01;14.73;;;11.02;;
73872;SDS011;62206;47.568;9.364;2024-01-30T04:38:28;13.55;;;10.52;;
73872;SDS011;62206;47.568;9.364;2024-01-30T04:40:57;14.67;;;10.53;;
73872;SDS011;62206;47.568;9.364;2024-01-30T04:43:24;14.02;;;10.55;;
73872;SDS011;62206;47.568;9.364;2024-01-30T04:45:58;13.73;;;10.93;;
73872;SDS011;62206;47.568;9.364;2024-01-30T04:48:25;14.50;;;11.52;;
73872;SDS011;62206;47.568;9.364;2024-01-30T04:50:56;21.73;;;11.82;;
73872;SDS011;62206;47.568;9.364;2024-01-30T04:53:25;15.30;;;11.80;;
73872;SDS011;62206;47.568;9.364;2024-01-30T04:55:55;16.00;;;11.63;;
73872;SDS011;62206;47.568;9.364;2024-01-30T04:58:25;15.10;;;11.68;;
73872;SDS011;62206;47.568;9.364;2024-01-30T05:00:53;14.05;;;10.88;;
73872;SDS011;62206;47.568;9.364;2024-01-30T05:03:20;17.90;;;12.07;;
73872;SDS011;62206;47.568;9.364;2024-01-30T05:05:51;14.23;;;10.83;;
73872;SDS011;62206;47.568;9.364;2024-01-30T05:08:18;15.80;;;11.38;;
73872;SDS011;62206;47.568;9.364;2024-01-30T05:10:45;15.82;;;12.52;;
73872;SDS011;62206;47.568;9.364;2024-01-30T05:13:13;14.70;;;11.63;;
73872;SDS011;62206;47.568;9.364;2024-01-30T05:18:28;15.93;;;12.23;;
73872;SDS011;62206;47.568;9.364;2024-01-30T05:20:57;16.17;;;11.95;;
73872;SDS011;62206;47.568;9.364;2024-01-30T05:23:26;16.17;;;12.15;;
73872;SDS011;62206;47.568;9.364;2024-01-30T05:26:01;16.25;;;11.82;;
73872;SDS011;62206;47.568;9.364;2024-01-30T05:28:31;34.53;;;12.27;;
73872;SDS011;62206;47.568;9.364;2024-01-30T05:30:59;19.17;;;11.70;;
73872;SDS011;62206;47.568;9.364;2024-01-30T05:33:26;19.38;;;12.32;;
73872;SDS011;62206;47.568;9.364;2024-01-30T05:35:54;20.45;;;13.75;;
73872;SDS011;62206;47.568;9.364;2024-01-30T05:38:23;22.15;;;13.13;;
73872;SDS011;62206;47.568;9.364;2024-01-30T05:40:52;19.02;;;14.20;;
73872;SDS011;62206;47.568;9.364;2024-01-30T05:43:21;24.17;;;12.37;;
73872;SDS011;62206;47.568;9.364;2024-01-30T05:45:55;23.33;;;13.18;;
73872;SDS011;62206;47.568;9.364;2024-01-30T05:48:29;20.55;;;13.63;;
73872;SDS011;62206;47.568;9.364;2024-01-30T05:50:59;20.08;;;12.73;;
73872;SDS011;62206;47.568;9.364;2024-01-30T05:53:31;22.85;;;12.93;;
73872;SDS011;62206;47.568;9.364;2024-01-30T05:56:02;18.83;;;12.50;;
73872;SDS011;62206;47.568;9.364;2024-01-30T05:58:33;18.20;;;12.85;;
73872;SDS011;62206;47.568;9.364;2024-01-30T06:01:04;28.50;;;12.93;;
73872;SDS011;62206;47.568;9.364;2024-01-30T06:03:34;16.48;;;11.50;;
73872;SDS011;62206;47.568;9.364;2024-01-30T06:06:05;22.00;;;14.50;;
73872;SDS011;62206;47.568;9.364;2024-01-30T06:08:32;19.43;;;12.67;;
73872;SDS011;62206;47.568;9.364;2024-01-30T06:11:03;23.15;;;13.52;;
73872;SDS011;62206;47.568;9.364;2024-01-30T06:13:36;22.85;;;12.75;;
73872;SDS011;62206;47.568;9.364;2024-01-30T06:16:08;22.58;;;12.55;;
73872;SDS011;62206;47.568;9.364;2024-01-30T06:18:37;17.15;;;12.68;;
73872;SDS011;62206;47.568;9.364;2024-01-30T06:21:14;51.57;;;13.90;;
73872;SDS011;62206;47.568;9.364;2024-01-30T06:23:41;21.52;;;12.82;;
73872;SDS011;62206;47.568;9.364;2024-01-30T06:26:11;19.08;;;13.45;;
73872;SDS011;62206;47.568;9.364;2024-01-30T06:28:38;21.35;;;13.45;;
73872;SDS011;62206;47.568;9.364;2024-01-30T06:31:07;33.90;;;14.60;;
73872;SDS011;62206;47.568;9.364;2024-01-30T06:33:34;19.73;;;12.93;;
73872;SDS011;62206;47.568;9.364;2024-01-30T06:36:02;20.00;;;13.57;;
73872;SDS011;62206;47.568;9.364;2024-01-30T06:38:30;20.73;;;14.15;;
73872;SDS011;62206;47.568;9.364;2024-01-30T06:40:57;21.90;;;13.45;;
73872;SDS011;62206;47.568;9.364;2024-01-30T06:43:25;41.58;;;12.40;;
73872;SDS011;62206;47.568;9.364;2024-01-30T06:45:52;16.07;;;11.47;;
73872;SDS011;62206;47.568;9.364;2024-01-30T06:48:21;15.70;;;11.80;;
73872;SDS011;62206;47.568;9.364;2024-01-30T06:50:48;18.95;;;12.13;;
73872;SDS011;62206;47.568;9.364;2024-01-30T06:53:16;30.95;;;12.35;;
73872;SDS011;62206;47.568;9.364;2024-01-30T06:55:44;40.70;;;12.77;;
73872;SDS011;62206;47.568;9.364;2024-01-30T06:58:13;20.70;;;11.57;;
73872;SDS011;62206;47.568;9.364;2024-01-30T07:00:40;15.95;;;11.73;;
73872;SDS011;62206;47.568;9.364;2024-01-30T07:03:09;14.77;;;11.32;;
73872;SDS011;62206;47.568;9.364;2024-01-30T07:05:38;18.13;;;11.07;;
73872;SDS011;62206;47.568;9.364;2024-01-30T07:08:17;14.05;;;11.60;;
73872;SDS011;62206;47.568;9.364;2024-01-30T07:10:50;14.30;;;10.53;;
73872;SDS011;62206;47.568;9.364;2024-01-30T07:13:21;16.42;;;10.13;;
73872;SDS011;62206;47.568;9.364;2024-01-30T07:15:48;15.90;;;11.50;;
73872;SDS011;62206;47.568;9.364;2024-01-30T07:18:15;13.25;;;10.52;;
73872;SDS011;62206;47.568;9.364;2024-01-30T07:20:44;13.48;;;10.73;;
73872;SDS011;62206;47.568;9.364;2024-01-30T07:23:12;13.80;;;10.33;;
73872;SDS011;62206;47.568;9.364;2024-01-30T07:25:42;18.98;;;12.05;;
73872;SDS011;62206;47.568;9.364;2024-01-30T07:28:14;15.25;;;11.25;;
73872;SDS011;62206;47.568;9.364;2024-01-30T07:30:52;13.95;;;10.20;;
73872;SDS011;62206;47.568;9.364;2024-01-30T07:33:22;14.45;;;10.75;;
73872;SDS011;62206;47.568;9.364;2024-01-30T07:35:51;13.43;;;10.67;;
73872;SDS011;62206;47.568;9.364;2024-01-30T07:38:19;14.43;;;11.25;;
73872;SDS011;62206;47.568;9.364;2024-01-30T07:40:47;15.20;;;11.32;;
73872;SDS011;62206;47.568;9.364;2024-01-30T07:43:16;13.48;;;10.98;;
73872;SDS011;62206;47.568;9.364;2024-01-30T07:45:46;14.63;;;11.50;;
73872;SDS011;62206;47.568;9.364;2024-01-30T07:48:13;13.00;;;10.10;;
73872;SDS011;62206;47.568;9.364;2024-01-30T07:50:41;14.02;;;11.40;;
73872;SDS011;62206;47.568;9.364;2024-01-30T07:53:13;16.27;;;11.02;;
73872;SDS011;62206;47.568;9.364;2024-01-30T07:55:41;36.40;;;10.85;;
73872;SDS011;62206;47.568;9.364;2024-01-30T07:58:22;15.27;;;10.95;;
73872;SDS011;62206;47.568;9.364;2024-01-30T08:00:52;28.83;;;12.03;;
73872;SDS011;62206;47.568;9.364;2024-01-30T08:03:19;15.25;;;10.95;;
73872;SDS011;62206;47.568;9.364;2024-01-30T08:05:47;15.75;;;11.55;;
73872;SDS011;62206;47.568;9.364;2024-01-30T08:08:16;14.43;;;11.02;;
73872;SDS011;62206;47.568;9.364;2024-01-30T08:10:46;16.73;;;10.88;;
73872;SDS011;62206;47.568;9.364;2024-01-30T08:13:15;20.90;;;11.10;;
73872;SDS011;62206;47.568;9.364;2024-01-30T08:15:42;13.40;;;10.75;;
73872;SDS011;62206;47.568;9.364;2024-01-30T08:18:09;16.52;;;12.20;;
73872;SDS011;62206;47.568;9.364;2024-01-30T08:20:37;13.48;;;11.05;;
73872;SDS011;62206;47.568;9.364;2024-01-30T08:23:04;18.08;;;10.85;;
73872;SDS011;62206;47.568;9.364;2024-01-30T08:25:36;15.03;;;10.97;;
73872;SDS011;62206;47.568;9.364;2024-01-30T08:28:04;12.95;;;10.77;;
73872;SDS011;62206;47.568;9.364;2024-01-30T08:30:35;15.20;;;11.50;;
73872;SDS011;62206;47.568;9.364;2024-01-30T08:33:05;15.02;;;12.27;;
73872;SDS011;62206;47.568;9.364;2024-01-30T08:35:31;13.95;;;11.35;;
73872;SDS011;62206;47.568;9.364;2024-01-30T08:37:59;14.87;;;11.40;;
73872;SDS011;62206;47.568;9.364;2024-01-30T08:40:26;12.95;;;10.77;;
73872;SDS011;62206;47.568;9.364;2024-01-30T08:42:56;14.35;;;11.13;;
73872;SDS011;62206;47.568;9.364;2024-01-30T08:45:23;14.45;;;11.80;;
73872;SDS011;62206;47.568;9.364;2024-01-30T08:47:55;15.20;;;12.27;;
73872;SDS011;62206;47.568;9.364;2024-01-30T08:50:24;14.93;;;11.17;;
73872;SDS011;62206;47.568;9.364;2024-01-30T08:53:04;14.75;;;11.65;;
73872;SDS011;62206;47.568;9.364;2024-01-30T08:56:11;14.50;;;11.93;;
73872;SDS011;62206;47.568;9.364;2024-01-30T08:59:03;14.90;;;12.35;;
73872;SDS011;62206;47.568;9.364;2024-01-30T09:02:03;15.65;;;12.63;;
73872;SDS011;62206;47.568;9.364;2024-01-30T09:04:33;16.80;;;11.97;;
73872;SDS011;62206;47.568;9.364;2024-01-30T09:10:47;18.10;;;12.68;;
73872;SDS011;62206;47.568;9.364;2024-01-30T09:13:31;15.32;;;11.65;;
73872;SDS011;62206;47.568;9.364;2024-01-30T09:16:00;16.13;;;12.40;;
73872;SDS011;62206;47.568;9.364;2024-01-30T09:18:27;17.03;;;13.17;;
73872;SDS011;62206;47.568;9.364;2024-01-30T09:20:54;16.75;;;12.75;;
73872;SDS011;62206;47.568;9.364;2024-01-30T09:23:21;16.85;;;12.95;;
73872;SDS011;62206;47.568;9.364;2024-01-30T09:25:48;16.92;;;13.07;;
73872;SDS011;62206;47.568;9.364;2024-01-30T09:28:16;17.33;;;13.30;;
73872;SDS011;62206;47.568;9.364;2024-01-30T09:30:44;18.70;;;13.47;;
73872;SDS011;62206;47.568;9.364;2024-01-30T09:33:12;15.23;;;12.38;;
73872;SDS011;62206;47.568;9.364;2024-01-30T09:35:39;14.70;;;11.60;;
73872;SDS011;62206;47.568;9.364;2024-01-30T09:38:07;14.63;;;11.45;;
73872;SDS011;62206;47.568;9.364;2024-01-30T09:40:34;13.70;;;11.50;;
73872;SDS011;62206;47.568;9.364;2024-01-30T09:43:03;15.07;;;11.80;;
73872;SDS011;62206;47.568;9.364;2024-01-30T09:45:31;13.88;;;11.40;;
73872;SDS011;62206;47.568;9.364;2024-01-30T09:47:59;14.90;;;12.65;;
73872;SDS011;62206;47.568;9.364;2024-01-30T09:50:27;19.38;;;11.70;;
73872;SDS011;62206;47.568;9.364;2024-01-30T09:52:55;16.00;;;11.82;;
73872;SDS011;62206;47.568;9.364;2024-01-30T09:55:23;16.13;;;12.17;;
73872;SDS011;62206;47.568;9.364;2024-01-30T09:57:50;14.40;;;11.27;;
73872;SDS011;62206;47.568;9.364;2024-01-30T10:00:18;15.38;;;12.18;;
73872;SDS011;62206;47.568;9.364;2024-01-30T10:02:45;14.70;;;12.27;;
73872;SDS011;62206;47.568;9.364;2024-01-30T10:05:14;14.65;;;11.95;;
73872;SDS011;62206;47.568;9.364;2024-01-30T10:07:52;22.00;;;12.67;;
73872;SDS011;62206;47.568;9.364;2024-01-30T10:10:21;88.75;;;37.35;;
73872;SDS011;62206;47.568;9.364;2024-01-30T10:12:51;28.65;;;18.00;;
73872;SDS011;62206;47.568;9.364;2024-01-30T10:15:18;26.67;;;16.08;;
73872;SDS011;62206;47.568;9.364;2024-01-30T10:17:45;42.10;;;20.67;;
73872;SDS011;62206;47.568;9.364;2024-01-30T10:20:13;19.63;;;13.73;;
73872;SDS011;62206;47.568;9.364;2024-01-30T10:22:40;57.72;;;28.95;;
73872;SDS011;62206;47.568;9.364;2024-01-30T10:25:09;29.58;;;19.70;;
73872;SDS011;62206;47.568;9.364;2024-01-30T10:27:36;19.25;;;13.68;;
73872;SDS011;62206;47.568;9.364;2024-01-30T10:30:06;16.17;;;12.98;;
73872;SDS011;62206;47.568;9.364;2024-01-30T10:32:34;17.03;;;12.93;;
73872;SDS011;62206;47.568;9.364;2024-01-30T10:35:02;17.73;;;12.88;;
73872;SDS011;62206;47.568;9.364;2024-01-30T10:37:29;17.17;;;12.65;;
73872;SDS011;62206;47.568;9.364;2024-01-30T10:39:58;16.23;;;12.32;;
73872;SDS011;62206;47.568;9.364;2024-01-30T10:42:31;17.90;;;13.15;;
73872;SDS011;62206;47.568;9.364;2024-01-30T10:45:00;17.10;;;13.63;;
73872;SDS011;62206;47.568;9.364;2024-01-30T10:47:30;16.42;;;12.90;;
73872;SDS011;62206;47.568;9.364;2024-01-30T10:49:57;18.08;;;12.75;;
73872;SDS011;62206;47.568;9.364;2024-01-30T10:52:24;18.10;;;12.75;;
73872;SDS011;62206;47.568;9.364;2024-01-30T10:54:53;16.65;;;13.45;;
73872;SDS011;62206;47.568;9.364;2024-01-30T10:57:21;15.37;;;12.50;;
73872;SDS011;62206;47.568;9.364;2024-01-30T10:59:51;18.08;;;13.93;;
73872;SDS011;62206;47.568;9.364;2024-01-30T11:02:19;18.35;;;14.40;;
73872;SDS011;62206;47.568;9.364;2024-01-30T11:04:46;18.42;;;13.52;;
73872;SDS011;62206;47.568;9.364;2024-01-30T11:07:14;18.05;;;14.18;;
73872;SDS011;62206;47.568;9.364;2024-01-30T11:09:48;17.37;;;13.63;;
73872;SDS011;62206;47.568;9.364;2024-01-30T11:12:16;19.10;;;13.65;;
73872;SDS011;62206;47.568;9.364;2024-01-30T11:14:43;18.73;;;14.23;;
73872;SDS011;62206;47.568;9.364;2024-01-30T11:17:12;19.05;;;13.52;;
73872;SDS011;62206;47.568;9.364;2024-01-30T11:19:39;17.38;;;13.63;;
73872;SDS011;62206;47.568;9.364;2024-01-30T11:22:08;18.00;;;13.90;;
73872;SDS011;62206;47.568;9.364;2024-01-30T11:24:38;18.80;;;14.52;;
73872;SDS011;62206;47.568;9.364;2024-01-30T11:27:08;18.40;;;14.65;;
73872;SDS011;62206;47.568;9.364;2024-01-30T11:29:35;18.30;;;13.70;;
73872;SDS011;62206;47.568;9.364;2024-01-30T11:32:03;20.20;;;14.70;;
73872;SDS011;62206;47.568;9.364;2024-01-30T11:34:32;21.30;;;14.90;;
73872;SDS011;62206;47.568;9.364;2024-01-30T11:37:02;17.13;;;13.48;;
73872;SDS011;62206;47.568;9.364;2024-01-30T11:39:31;18.10;;;13.68;;
73872;SDS011;62206;47.568;9.364;2024-01-30T11:41:58;16.80;;;13.18;;
73872;SDS011;62206;47.568;9.364;2024-01-30T11:44:25;16.83;;;14.15;;
73872;SDS011;62206;47.568;9.364;2024-01-30T11:46:53;18.40;;;14.10;;
73872;SDS011;62206;47.568;9.364;2024-01-30T11:49:20;17.42;;;13.00;;
73872;SDS011;62206;47.568;9.364;2024-01-30T11:51:48;18.55;;;13.45;;
73872;SDS011;62206;47.568;9.364;2024-01-30T11:54:16;18.45;;;14.10;;
73872;SDS011;62206;47.568;9.364;2024-01-30T11:56:43;19.05;;;15.40;;
73872;SDS011;62206;47.568;9.364;2024-01-30T11:59:10;21.07;;;15.00;;
73872;SDS011;62206;47.568;9.364;2024-01-30T12:01:38;17.27;;;13.50;;
73872;SDS011;62206;47.568;9.364;2024-01-30T12:04:05;20.35;;;15.07;;
73872;SDS011;62206;47.568;9.364;2024-01-30T12:06:34;21.88;;;15.48;;
73872;SDS011;62206;47.568;9.364;2024-01-30T12:09:03;20.42;;;15.35;;
73872;SDS011;62206;47.568;9.364;2024-01-30T12:11:31;22.17;;;14.87;;
73872;SDS011;62206;47.568;9.364;2024-01-30T12:13:58;20.45;;;15.05;;
73872;SDS011;62206;47.568;9.364;2024-01-30T12:16:26;21.67;;;16.33;;
73872;SDS011;62206;47.568;9.364;2024-01-30T12:18:59;21.42;;;15.50;;
73872;SDS011;62206;47.568;9.364;2024-01-30T12:21:28;21.08;;;15.30;;
73872;SDS011;62206;47.568;9.364;2024-01-30T12:23:55;20.10;;;15.10;;
73872;SDS011;62206;47.568;9.364;2024-01-30T12:26:24;20.85;;;15.57;;
73872;SDS011;62206;47.568;9.364;2024-01-30T12:28:54;22.60;;;16.33;;
73872;SDS011;62206;47.568;9.364;2024-01-30T12:31:26;24.23;;;16.48;;
73872;SDS011;62206;47.568;9.364;2024-01-30T12:33:54;21.08;;;15.80;;
73872;SDS011;62206;47.568;9.364;2024-01-30T12:36:21;20.93;;;14.77;;
73872;SDS011;62206;47.568;9.364;2024-01-30T12:38:49;21.88;;;15.85;;
73872;SDS011;62206;47.568;9.364;2024-01-30T12:41:17;21.27;;;16.40;;
73872;SDS011;62206;47.568;9.364;2024-01-30T12:43:45;21.42;;;15.60;;
73872;SDS011;62206;47.568;9.364;2024-01-30T12:46:13;22.00;;;16.25;;
73872;SDS011;62206;47.568;9.364;2024-01-30T12:48:40;21.17;;;15.63;;
73872;SDS011;62206;47.568;9.364;2024-01-30T12:51:07;20.25;;;16.05;;
73872;SDS011;62206;47.568;9.364;2024-01-30T12:53:34;21.77;;;16.60;;
73872;SDS011;62206;47.568;9.364;2024-01-30T12:56:02;21.15;;;15.30;;
73872;SDS011;62206;47.568;9.364;2024-01-30T12:58:29;20.77;;;15.38;;
73872;SDS011;62206;47.568;9.364;2024-01-30T13:00:58;20.90;;;16.20;;
73872;SDS011;62206;47.568;9.364;2024-01-30T13:03:25;19.67;;;15.52;;
73872;SDS011;62206;47.568;9.364;2024-01-30T13:05:52;22.58;;;16.33;;
73872;SDS011;62206;47.568;9.364;2024-01-30T13:08:19;20.58;;;15.80;;
73872;SDS011;62206;47.568;9.364;2024-01-30T13:10:47;20.08;;;16.30;;
73872;SDS011;62206;47.568;9.364;2024-01-30T13:13:14;20.33;;;15.77;;
73872;SDS011;62206;47.568;9.364;2024-01-30T13:15:40;19.30;;;15.52;;
73872;SDS011;62206;47.568;9.364;2024-01-30T13:18:10;20.67;;;16.02;;
73872;SDS011;62206;47.568;9.364;2024-01-30T13:20:36;21.30;;;16.27;;
73872;SDS011;62206;47.568;9.364;2024-01-30T13:23:03;19.55;;;15.50;;
73872;SDS011;62206;47.568;9.364;2024-01-30T13:25:31;18.83;;;15.73;;
73872;SDS011;62206;47.568;9.364;2024-01-30T13:27:58;20.92;;;15.38;;
73872;SDS011;62206;47.568;9.364;2024-01-30T13:30:25;22.55;;;16.05;;
73872;SDS011;62206;47.568;9.364;2024-01-30T13:32:52;23.23;;;17.25;;
73872;SDS011;62206;47.568;9.364;2024-01-30T13:35:21;19.92;;;15.45;;
73872;SDS011;62206;47.568;9.364;2024-01-30T13:37:48;21.07;;;15.87;;
73872;SDS011;62206;47.568;9.364;2024-01-30T13:40:16;21.42;;;16.10;;
73872;SDS011;62206;47.568;9.364;2024-01-30T13:42:43;20.35;;;15.20;;
73872;SDS011;62206;47.568;9.364;2024-01-30T13:45:10;21.45;;;14.95;;
73872;SDS011;62206;47.568;9.364;2024-01-30T13:47:38;21.33;;;16.77;;
73872;SDS011;62206;47.568;9.364;2024-01-30T13:50:05;21.33;;;15.03;;
73872;SDS011;62206;47.568;9.364;2024-01-30T13:52:34;21.98;;;16.50;;
73872;SDS011;62206;47.568;9.364;2024-01-30T13:55:02;24.90;;;17.92;;
73872;SDS011;62206;47.568;9.364;2024-01-30T13:57:29;25.42;;;17.25;;
73872;SDS011;62206;47.568;9.364;2024-01-30T14:00:00;22.02;;;15.82;;
73872;SDS011;62206;47.568;9.364;2024-01-30T14:02:27;23.20;;;16.43;;
73872;SDS011;62206;47.568;9.364;2024-01-30T14:04:54;21.33;;;16.20;;
73872;SDS011;62206;47.568;9.364;2024-01-30T14:07:21;21.73;;;16.77;;
73872;SDS011;62206;47.568;9.364;2024-01-30T14:09:50;22.30;;;16.52;;
73872;SDS011;62206;47.568;9.364;2024-01-30T14:12:17;20.65;;;16.30;;
73872;SDS011;62206;47.568;9.364;2024-01-30T14:14:44;20.87;;;15.77;;
73872;SDS011;62206;47.568;9.364;2024-01-30T14:17:12;21.02;;;14.50;;
73872;SDS011;62206;47.568;9.364;2024-01-30T14:19:38;23.10;;;16.20;;
73872;SDS011;62206;47.568;9.364;2024-01-30T14:22:06;20.50;;;15.70;;
73872;SDS011;62206;47.568;9.364;2024-01-30T14:24:34;20.55;;;15.70;;
73872;SDS011;62206;47.568;9.364;2024-01-30T14:27:04;20.97;;;16.13;;
73872;SDS011;62206;47.568;9.364;2024-01-30T14:29:31;21.35;;;15.75;;
73872;SDS011;62206;47.568;9.364;2024-01-30T14:31:58;22.33;;;16.40;;
73872;SDS011;62206;47.568;9.364;2024-01-30T14:34:25;21.38;;;15.18;;
73872;SDS011;62206;47.568;9.364;2024-01-30T14:36:52;21.55;;;16.70;;